Terminal Aerodrome Forecast
Issued by NWS Key West, FL

Home | Current Version | Previous Version | Text Only | Print | Product List | Glossary On
Versions: 1 2 3 4 5 6 7 8 9 10 11 12 13 14 15 16 17 18 19 20 21 22 23
000
FTUS42 KKEY 232031 AAA
TAFEYW
TAF AMD
KEYW 232031Z 2321/2418 13007KT P6SM FEW025 SCT200
     FM232200 11006KT P6SM VCTS SCT025CB SCT050 BKN200
     FM240200 11007KT P6SM FEW015 BKN200=

USA.gov is the U.S. government's official web portal to all federal, state and local government web resources and services.